Time;durP1;ratioP1;P1;durP2;ratioP2;P2;SDS_P1;SDS_P2;PMS_P1;PMS_P2;Temp;Humidity;BMP_temperature;BMP_pressure;BME280_temperature;BME280_humidity;BME280_pressure;Samples;Min_cycle;Max_cycle;Signal;HPM_P1;HPM_P2
2021/01/30 00:02:04;;;;;;;24.20;11.77;;;;;;;-2.88;100.00;98782.19;4926246;29;20234;-71
2021/01/30 00:04:30;;;;;;;24.80;12.30;;;;;;;-2.89;100.00;98780.50;4947824;28;20241;-71
2021/01/30 00:06:57;;;;;;;27.43;11.70;;;;;;;-2.90;100.00;98779.66;4945063;28;20217;-71
2021/01/30 00:09:25;;;;;;;21.30;10.73;;;;;;;-2.89;100.00;98783.03;4948530;28;20196;-69
2021/01/30 00:11:53;;;;;;;21.23;11.97;;;;;;;-2.90;100.00;98786.47;4944188;28;20257;-71
2021/01/30 00:14:21;;;;;;;22.27;11.70;;;;;;;-2.92;100.00;98794.09;4946998;28;20261;-71
2021/01/30 00:16:48;;;;;;;23.00;12.30;;;;;;;-2.89;100.00;98788.97;4942401;28;20218;-72
2021/01/30 00:19:13;;;;;;;24.67;12.63;;;;;;;-2.90;100.00;98789.84;4945441;28;20206;-72
2021/01/30 00:21:39;;;;;;;20.63;11.83;;;;;;;-2.89;100.00;98790.69;4941719;28;20230;-69
2021/01/30 00:24:06;;;;;;;25.50;12.93;;;;;;;-2.91;100.00;98784.75;4946519;28;20246;-69
2021/01/30 00:26:32;;;;;;;23.23;12.70;;;;;;;-2.89;100.00;98788.13;4947404;28;20501;-72
2021/01/30 00:28:58;;;;;;;25.37;12.77;;;;;;;-2.87;100.00;98787.31;4945172;28;20211;-70
2021/01/30 00:31:23;;;;;;;22.90;11.30;;;;;;;-2.91;100.00;98793.25;4925235;28;20199;-71
2021/01/30 00:33:50;;;;;;;25.53;13.27;;;;;;;-2.89;100.00;98790.69;4947960;28;20206;-70
2021/01/30 00:36:16;;;;;;;26.30;13.97;;;;;;;-2.91;100.00;98787.28;4940222;28;20233;-70
2021/01/30 00:38:42;;;;;;;28.67;14.53;;;;;;;-2.92;100.00;98789.00;4937107;28;20570;-71
2021/01/30 00:41:08;;;;;;;29.30;13.60;;;;;;;-2.93;100.00;98789.84;4943365;28;20199;-70
2021/01/30 00:43:34;;;;;;;27.40;14.43;;;;;;;-2.94;100.00;98793.22;4944943;28;20210;-70
2021/01/30 00:46:00;;;;;;;27.03;14.17;;;;;;;-2.95;100.00;98783.91;4942261;28;20249;-70
2021/01/30 00:48:26;;;;;;;25.57;13.37;;;;;;;-2.95;100.00;98786.44;4943387;28;20199;-71
2021/01/30 00:50:52;;;;;;;30.10;15.17;;;;;;;-2.95;100.00;98778.81;4945536;28;20202;-72
2021/01/30 00:53:18;;;;;;;29.10;14.57;;;;;;;-2.92;100.00;98783.91;4943993;28;20302;-70
2021/01/30 00:55:46;;;;;;;29.57;15.30;;;;;;;-2.93;100.00;98778.81;4944844;28;20222;-71
2021/01/30 00:58:13;;;;;;;31.70;15.40;;;;;;;-2.96;100.00;98772.00;4943947;28;20203;-70
2021/01/30 01:00:40;;;;;;;33.57;15.13;;;;;;;-2.98;100.00;98765.22;4942173;28;20285;-69
2021/01/30 01:03:12;;;;;;;27.57;14.50;;;;;;;-2.99;100.00;98761.81;4940682;28;20237;-72
2021/01/30 01:06:02;;;;;;;30.43;14.63;;;;;;;-2.99;100.00;98753.28;4945127;28;20501;-70
2021/01/30 01:08:28;;;;;;;26.67;13.30;;;;;;;-2.99;100.00;98754.16;4944410;28;20209;-70
2021/01/30 01:10:54;;;;;;;26.07;14.70;;;;;;;-3.03;100.00;98754.16;4945934;28;20216;-70
2021/01/30 01:13:20;;;;;;;27.17;13.97;;;;;;;-3.01;100.00;98750.75;4942273;28;20230;-70
2021/01/30 01:15:46;;;;;;;27.57;13.97;;;;;;;-3.00;100.00;98751.63;4944415;28;20718;-70
2021/01/30 01:18:13;;;;;;;28.17;15.47;;;;;;;-3.01;100.00;98742.25;4937553;28;20204;-71
2021/01/30 01:20:39;;;;;;;30.20;15.03;;;;;;;-3.02;100.00;98746.50;4941702;28;20194;-71
2021/01/30 01:23:06;;;;;;;27.63;13.73;;;;;;;-3.00;100.00;98749.06;4945194;28;20237;-71
2021/01/30 01:25:32;;;;;;;26.83;14.63;;;;;;;-3.01;100.00;98750.75;4945580;28;20234;-71
2021/01/30 01:27:58;;;;;;;30.77;15.53;;;;;;;-3.02;100.00;98749.06;4945319;28;20541;-70
2021/01/30 01:30:25;;;;;;;32.17;16.17;;;;;;;-3.07;100.00;98754.16;4943720;28;20726;-71
2021/01/30 01:32:53;;;;;;;28.77;15.30;;;;;;;-3.07;100.00;98740.56;4945376;28;20229;-69
2021/01/30 01:35:23;;;;;;;27.57;15.23;;;;;;;-3.07;100.00;98740.56;4946783;28;20224;-70
2021/01/30 01:37:51;;;;;;;29.30;14.53;;;;;;;-3.10;100.00;98745.66;4944418;28;20198;-69
2021/01/30 01:40:21;;;;;;;27.47;15.20;;;;;;;-3.10;100.00;98746.50;4942783;28;20730;-71
2021/01/30 01:42:47;;;;;;;31.60;14.87;;;;;;;-3.11;100.00;98742.28;4945007;28;20225;-70
2021/01/30 01:45:14;;;;;;;29.00;15.03;;;;;;;-3.12;100.00;98740.56;4942966;29;20211;-71
2021/01/30 01:47:44;;;;;;;28.57;15.13;;;;;;;-3.13;100.00;98736.34;4948614;28;20206;-71
2021/01/30 01:50:28;;;;;;;27.70;14.63;;;;;;;-3.13;100.00;98743.97;4944188;28;20663;-70
2021/01/30 01:52:59;;;;;;;27.60;14.80;;;;;;;-3.13;100.00;98746.53;4943706;28;20226;-69
2021/01/30 01:55:26;;;;;;;30.33;14.87;;;;;;;-3.15;100.00;98739.72;4947199;28;20481;-70
2021/01/30 01:57:56;;;;;;;27.37;15.20;;;;;;;-3.17;100.00;98757.56;4944424;28;20203;-71
2021/01/30 02:00:25;;;;;;;32.10;16.27;;;;;;;-3.17;100.00;98777.94;4947803;28;20460;-70
2021/01/30 02:02:54;;;;;;;36.70;17.53;;;;;;;-3.20;100.00;98783.06;4949980;28;20301;-71
2021/01/30 02:05:25;;;;;;;32.10;14.90;;;;;;;-3.18;100.00;98794.13;4946916;28;20211;-70
2021/01/30 02:07:55;;;;;;;30.20;15.23;;;;;;;-3.18;100.00;98785.59;4947954;28;20210;-69
2021/01/30 02:10:24;;;;;;;26.13;15.03;;;;;;;-3.19;100.00;98778.81;4950830;28;20229;-70
2021/01/30 02:12:53;;;;;;;25.03;13.43;;;;;;;-3.20;100.00;98775.44;4947643;28;20248;-70
2021/01/30 02:15:20;;;;;;;30.00;14.97;;;;;;;-3.17;100.00;98782.22;4950192;28;20841;-71
2021/01/30 02:17:56;;;;;;;25.60;13.27;;;;;;;-3.20;100.00;98775.44;4947275;28;20214;-71
2021/01/30 02:20:37;;;;;;;25.23;13.87;;;;;;;-3.24;100.00;98766.06;4949895;28;20461;-71
2021/01/30 02:23:39;;;;;;;25.73;12.87;;;;;;;-3.26;100.00;98753.31;4938883;28;20231;-69
2021/01/30 02:26:23;;;;;;;24.93;13.63;;;;;;;-3.27;100.00;98745.69;4941495;28;20457;-70
2021/01/30 02:29:10;;;;;;;24.40;12.20;;;;;;;-3.29;100.00;98760.09;4941303;28;20536;-70
2021/01/30 02:31:51;;;;;;;21.90;11.53;;;;;;;-3.31;100.00;98757.56;4942082;28;20544;-73
2021/01/30 02:34:33;;;;;;;24.87;12.20;;;;;;;-3.37;100.00;98761.84;4947672;28;20482;-71
2021/01/30 02:37:03;;;;;;;24.43;11.17;;;;;;;-3.38;100.00;98760.97;4950209;29;20205;-70
2021/01/30 02:39:36;;;;;;;22.67;9.67;;;;;;;-3.41;100.00;98758.44;4945716;28;20469;-70
2021/01/30 02:42:09;;;;;;;15.60;8.30;;;;;;;-3.44;100.00;98759.25;4949600;28;20226;-70
2021/01/30 02:44:38;;;;;;;14.60;7.97;;;;;;;-3.50;100.00;98768.59;4945285;28;20493;-69
2021/01/30 02:47:08;;;;;;;18.73;9.33;;;;;;;-3.58;100.00;98778.78;4948226;28;20469;-70
2021/01/30 02:49:38;;;;;;;14.60;7.63;;;;;;;-3.61;100.00;98783.88;4947766;28;20529;-70
2021/01/30 02:52:10;;;;;;;17.07;8.43;;;;;;;-3.62;100.00;98788.13;4949155;28;20477;-71
2021/01/30 02:54:38;;;;;;;10.57;6.60;;;;;;;-3.67;100.00;98788.97;4945531;28;20485;-69
2021/01/30 02:57:07;;;;;;;15.60;7.20;;;;;;;-3.73;100.00;98791.50;4945991;28;20446;-70
2021/01/30 02:59:39;;;;;;;11.73;6.77;;;;;;;-3.70;100.00;98787.25;4946425;28;20825;-71
2021/01/30 03:02:05;;;;;;;10.80;7.13;;;;;;;-3.73;100.00;98792.38;4945910;28;20497;-72
2021/01/30 03:04:31;;;;;;;16.00;8.67;;;;;;;-3.72;100.00;98803.41;4948798;28;20466;-71
2021/01/30 03:07:12;;;;;;;13.30;7.93;;;;;;;-3.72;100.00;98794.03;4949584;28;21491;-71
2021/01/30 03:09:45;;;;;;;14.40;6.87;;;;;;;-3.75;100.00;98811.88;4941397;28;20209;-71
2021/01/30 03:12:16;;;;;;;15.20;7.20;;;;;;;-3.78;100.00;98811.88;4947880;28;20935;-71
2021/01/30 03:14:49;;;;;;;13.47;7.63;;;;;;;-3.76;100.00;98811.84;4947397;28;20485;-71
2021/01/30 03:17:18;;;;;;;14.73;7.43;;;;;;;-3.76;100.00;98810.19;4947883;28;20470;-70
2021/01/30 03:19:45;;;;;;;11.37;6.43;;;;;;;-3.78;100.00;98813.56;4940368;28;20461;-70
2021/01/30 03:22:14;;;;;;;12.77;6.87;;;;;;;-3.79;100.00;98820.34;4944289;28;20484;-70
2021/01/30 03:24:45;;;;;;;14.93;7.90;;;;;;;-3.80;100.00;98816.09;4945554;28;20468;-70
2021/01/30 03:27:16;;;;;;;15.10;7.53;;;;;;;-3.78;100.00;98819.53;4946162;28;20829;-70
2021/01/30 03:29:42;;;;;;;12.23;7.33;;;;;;;-3.78;100.00;98816.09;4947891;28;20469;-70
2021/01/30 03:32:08;;;;;;;19.50;8.63;;;;;;;-3.82;100.00;98813.56;4945553;28;20488;-69
2021/01/30 03:34:34;;;;;;;13.97;6.70;;;;;;;-3.82;100.00;98817.78;4948693;28;20243;-71
2021/01/30 03:37:00;;;;;;;17.17;8.67;;;;;;;-3.83;100.00;98819.50;4946511;28;20218;-70
2021/01/30 03:39:26;;;;;;;13.50;7.37;;;;;;;-3.85;100.00;98822.91;4941442;28;20219;-70
2021/01/30 03:41:52;;;;;;;13.40;7.47;;;;;;;-3.86;100.00;98826.28;4948796;28;20851;-69
2021/01/30 03:44:18;;;;;;;12.23;7.07;;;;;;;-3.87;100.00;98840.72;4948153;28;20456;-71
2021/01/30 03:46:44;;;;;;;15.40;7.07;;;;;;;-3.86;100.00;98844.94;4940755;28;20259;-71
2021/01/30 03:49:10;;;;;;;13.00;7.57;;;;;;;-3.85;100.00;98845.81;4945296;28;20214;-69
2021/01/30 03:51:36;;;;;;;14.67;7.57;;;;;;;-3.89;100.00;98852.56;4939902;28;20226;-68
2021/01/30 03:54:02;;;;;;;15.73;7.80;;;;;;;-3.89;100.00;98859.38;4942634;28;20614;-71
2021/01/30 03:56:29;;;;;;;10.93;6.40;;;;;;;-3.90;100.00;98853.44;4949044;28;20227;-71
2021/01/30 03:58:54;;;;;;;11.87;6.53;;;;;;;-3.87;100.00;98873.81;4947827;28;20723;-71
2021/01/30 04:01:20;;;;;;;13.10;6.20;;;;;;;-3.87;100.00;98885.69;4948184;28;20461;-71
2021/01/30 04:03:47;;;;;;;14.20;6.63;;;;;;;-3.88;100.00;98889.09;4944608;28;20215;-71
2021/01/30 04:06:15;;;;;;;14.60;7.07;;;;;;;-3.86;100.00;98895.88;4943830;28;20635;-71
2021/01/30 04:08:41;;;;;;;13.47;6.90;;;;;;;-3.85;100.00;98897.59;4944701;28;20556;-71
2021/01/30 04:11:07;;;;;;;15.20;7.00;;;;;;;-3.86;100.00;98910.31;4943770;28;20469;-70
2021/01/30 04:13:34;;;;;;;11.83;6.83;;;;;;;-3.85;100.00;98905.22;4945275;28;20475;-70
2021/01/30 04:16:00;;;;;;;12.03;6.53;;;;;;;-3.85;100.00;98894.19;4942897;28;20544;-70
2021/01/30 04:18:26;;;;;;;13.07;6.90;;;;;;;-3.84;100.00;98906.06;4964652;28;20949;-69
2021/01/30 04:20:51;;;;;;;14.77;6.63;;;;;;;-3.85;100.00;98919.66;4961176;28;20770;-71
2021/01/30 04:23:17;;;;;;;12.93;6.70;;;;;;;-3.85;100.00;98928.16;4943011;28;20573;-70
2021/01/30 04:25:43;;;;;;;12.27;6.60;;;;;;;-3.84;100.00;98932.38;4946579;28;20828;-71
2021/01/30 04:28:09;;;;;;;14.30;7.53;;;;;;;-3.82;100.00;98928.19;4945790;28;20206;-71
2021/01/30 04:30:36;;;;;;;11.13;6.57;;;;;;;-3.82;100.00;98930.72;4946768;28;20286;-70
2021/01/30 04:33:02;;;;;;;10.50;6.40;;;;;;;-3.82;100.00;98935.81;4946975;28;20236;-70
2021/01/30 04:35:30;;;;;;;11.80;6.37;;;;;;;-3.83;100.00;98944.28;4943975;28;20642;-70
2021/01/30 04:37:56;;;;;;;9.20;5.93;;;;;;;-3.84;100.00;98942.56;4945583;28;20198;-71
2021/01/30 04:40:30;;;;;;;12.00;6.67;;;;;;;-3.84;100.00;98960.41;4944822;28;20473;-70
2021/01/30 04:43:06;;;;;;;9.33;6.13;;;;;;;-3.86;100.00;98966.34;4943808;28;20487;-70
2021/01/30 04:45:43;;;;;;;10.70;6.30;;;;;;;-3.85;100.00;98974.00;4942620;28;20864;-70
2021/01/30 04:48:24;;;;;;;12.77;6.87;;;;;;;-3.86;100.00;98979.06;4941606;28;20471;-71
2021/01/30 04:50:56;;;;;;;10.60;6.23;;;;;;;-3.86;100.00;98979.91;4945585;28;20473;-70
2021/01/30 04:53:40;;;;;;;9.53;5.57;;;;;;;-3.85;100.00;98988.44;4940590;28;20485;-71
2021/01/30 04:56:12;;;;;;;9.83;5.80;;;;;;;-3.85;100.00;98991.81;4943812;28;20487;-70
2021/01/30 04:58:47;;;;;;;10.60;5.93;;;;;;;-3.83;100.00;98994.38;4951640;28;20482;-71
2021/01/30 05:01:20;;;;;;;10.90;5.43;;;;;;;-3.84;100.00;99001.16;4947100;28;20846;-70
2021/01/30 05:04:15;;;;;;;8.93;5.00;;;;;;;-3.84;100.00;99005.41;4953046;28;20467;-71
2021/01/30 05:07:04;;;;;;;9.63;5.87;;;;;;;-3.85;100.00;99007.09;4944773;28;20819;-71
2021/01/30 05:09:36;;;;;;;8.20;5.53;;;;;;;-3.83;100.00;99010.50;4943067;28;20453;-70
2021/01/30 05:12:09;;;;;;;10.37;5.77;;;;;;;-3.85;100.00;99014.75;4947910;28;20488;-71
2021/01/30 05:14:40;;;;;;;9.63;5.13;;;;;;;-3.85;100.00;99019.00;4945209;28;20604;-70
2021/01/30 05:17:12;;;;;;;8.87;5.27;;;;;;;-3.84;100.00;99035.97;4943126;28;20475;-70
2021/01/30 05:19:42;;;;;;;9.93;5.53;;;;;;;-3.85;100.00;99032.56;4945343;28;20461;-71
2021/01/30 05:22:12;;;;;;;11.97;6.40;;;;;;;-3.85;100.00;99036.81;4945897;28;20480;-70
2021/01/30 05:24:38;;;;;;;9.20;5.83;;;;;;;-3.86;100.00;99037.66;4944690;28;20453;-70
2021/01/30 05:27:21;;;;;;;8.47;5.03;;;;;;;-3.85;100.00;99034.28;4939567;28;21017;-71
2021/01/30 05:29:53;;;;;;;9.70;5.57;;;;;;;-3.88;100.00;99029.16;4947838;28;20206;-73
2021/01/30 05:32:27;;;;;;;12.27;6.30;;;;;;;-3.87;100.00;99035.94;4946564;28;20494;-71
2021/01/30 05:34:57;;;;;;;8.83;5.23;;;;;;;-3.87;100.00;99044.44;4947199;28;20480;-71
2021/01/30 05:37:29;;;;;;;9.33;5.37;;;;;;;-3.86;100.00;99058.03;4944682;28;20464;-70
2021/01/30 05:40:08;;;;;;;10.60;6.10;;;;;;;-3.88;100.00;99059.72;4946856;28;20468;-71
2021/01/30 05:42:39;;;;;;;9.37;6.10;;;;;;;-3.89;100.00;99074.13;4948098;28;20492;-68
2021/01/30 05:45:16;;;;;;;10.43;5.47;;;;;;;-3.91;100.00;99080.91;4947949;28;20838;-70
2021/01/30 05:47:47;;;;;;;7.83;5.10;;;;;;;-3.88;100.00;99086.03;4949856;28;20480;-70
2021/01/30 05:50:18;;;;;;;10.43;5.77;;;;;;;-3.89;100.00;99097.03;4946521;28;20448;-70
2021/01/30 05:52:43;;;;;;;10.73;6.80;;;;;;;-3.90;100.00;99105.53;4947464;28;20538;-72
2021/01/30 05:55:25;;;;;;;10.50;6.10;;;;;;;-3.90;100.00;99115.72;4945812;28;20883;-71
2021/01/30 05:57:51;;;;;;;14.80;7.27;;;;;;;-3.91;100.00;99113.16;4948217;28;20217;-71
2021/01/30 06:00:19;;;;;;;11.77;6.90;;;;;;;-3.90;100.00;99118.28;4949671;28;20464;-70
2021/01/30 06:03:00;;;;;;;11.00;6.70;;;;;;;-3.90;100.00;99120.81;4943872;28;20483;-70
2021/01/30 06:05:30;;;;;;;11.10;6.70;;;;;;;-3.88;100.00;99126.78;4948966;28;20468;-71
2021/01/30 06:08:08;;;;;;;10.23;6.53;;;;;;;-3.88;100.00;99133.56;4926388;28;20901;-71
2021/01/30 06:10:34;;;;;;;12.57;7.17;;;;;;;-3.90;100.00;99133.56;4949554;28;20467;-71
2021/01/30 06:13:11;;;;;;;13.17;7.27;;;;;;;-3.88;100.00;99133.56;4938700;29;20575;-71
2021/01/30 06:15:39;;;;;;;13.17;7.47;;;;;;;-3.91;100.00;99129.28;4949096;28;20479;-71
2021/01/30 06:18:26;;;;;;;12.17;7.20;;;;;;;-3.89;100.00;99145.44;4948754;28;20472;-71
2021/01/30 06:21:01;;;;;;;20.67;11.80;;;;;;;-3.90;100.00;99151.38;4947239;28;20460;-71
2021/01/30 06:23:27;;;;;;;18.47;10.20;;;;;;;-3.88;100.00;99157.34;4949754;28;20488;-71
2021/01/30 06:26:05;;;;;;;22.47;13.17;;;;;;;-3.87;100.00;99159.06;4947573;28;20469;-71
2021/01/30 06:28:35;;;;;;;17.13;10.50;;;;;;;-3.86;100.00;99173.47;4943937;29;20842;-71
2021/01/30 06:31:10;;;;;;;15.00;9.37;;;;;;;-3.87;100.00;99174.34;4949046;28;20485;-71
2021/01/30 06:33:44;;;;;;;17.07;9.37;;;;;;;-3.86;100.00;99181.13;4946607;28;20489;-71
2021/01/30 06:36:14;;;;;;;19.10;9.67;;;;;;;-3.84;100.00;99188.78;4948367;28;20472;-71
2021/01/30 06:38:42;;;;;;;14.53;8.83;;;;;;;-3.85;100.00;99197.28;4945451;28;20457;-71
2021/01/30 06:41:19;;;;;;;17.43;9.57;;;;;;;-3.83;100.00;99200.69;4951644;28;20883;-71
2021/01/30 06:43:46;;;;;;;15.77;9.33;;;;;;;-3.81;100.00;99206.63;4949641;28;20949;-72
2021/01/30 06:46:15;;;;;;;13.33;8.67;;;;;;;-3.79;100.00;99216.84;4946312;28;20467;-71
2021/01/30 06:48:45;;;;;;;15.80;9.13;;;;;;;-3.78;100.00;99233.81;4949364;29;20814;-71
2021/01/30 06:51:29;;;;;;;17.23;9.27;;;;;;;-3.77;100.00;99235.53;4948968;28;20487;-71
2021/01/30 06:53:57;;;;;;;14.33;8.70;;;;;;;-3.75;100.00;99237.25;4943586;28;20473;-71
2021/01/30 06:56:26;;;;;;;17.60;9.20;;;;;;;-3.75;100.00;99252.53;4948466;28;20492;-71
2021/01/30 06:59:03;;;;;;;15.33;9.70;;;;;;;-3.76;100.00;99253.38;4948114;28;20461;-70
2021/01/30 07:01:42;;;;;;;17.27;9.20;;;;;;;-3.71;100.00;99267.03;4946815;28;20490;-70
2021/01/30 07:04:23;;;;;;;18.00;9.73;;;;;;;-3.71;100.00;99269.56;4951420;28;20469;-71
2021/01/30 07:06:58;;;;;;;14.97;9.30;;;;;;;-3.69;100.00;99277.25;4945357;28;20834;-71
2021/01/30 07:09:40;;;;;;;19.20;10.00;;;;;;;-3.69;100.00;99288.28;4941733;29;20461;-71
2021/01/30 07:12:13;;;;;;;16.93;10.40;;;;;;;-3.68;100.00;99295.06;4948636;28;20868;-71
2021/01/30 07:15:06;;;;;;;15.77;9.20;;;;;;;-3.64;100.00;99301.03;4946409;28;20458;-72
2021/01/30 07:17:52;;;;;;;16.20;9.70;;;;;;;-3.64;100.00;99308.69;4946287;28;20304;-70
2021/01/30 07:20:29;;;;;;;13.90;7.77;;;;;;;-3.60;100.00;99312.16;4947148;28;20930;-72
2021/01/30 07:23:02;;;;;;;14.07;7.97;;;;;;;-3.55;100.00;99318.09;4949050;28;20553;-71
2021/01/30 07:25:32;;;;;;;16.50;10.00;;;;;;;-3.55;100.00;99326.63;4948939;28;20512;-71
2021/01/30 07:28:05;;;;;;;16.00;8.93;;;;;;;-3.52;100.00;99331.72;4949079;28;20204;-71
2021/01/30 07:30:40;;;;;;;17.40;9.40;;;;;;;-3.50;100.00;99334.31;4951072;28;21063;-71
2021/01/30 07:33:10;;;;;;;18.20;9.87;;;;;;;-3.44;100.00;99340.31;4950474;28;20497;-70
2021/01/30 07:35:42;;;;;;;17.37;9.47;;;;;;;-3.42;100.00;99348.84;4945245;28;20833;-71
2021/01/30 07:38:17;;;;;;;17.03;9.40;;;;;;;-3.38;100.00;99357.38;4944233;28;20458;-70
2021/01/30 07:40:49;;;;;;;14.53;8.33;;;;;;;-3.37;100.00;99358.25;4951331;28;20461;-70
2021/01/30 07:43:19;;;;;;;16.63;8.63;;;;;;;-3.36;100.00;99354.84;4946089;28;20489;-72
2021/01/30 07:45:51;;;;;;;15.20;9.13;;;;;;;-3.36;100.00;99363.34;4946079;28;20464;-70
2021/01/30 07:48:23;;;;;;;16.97;9.70;;;;;;;-3.34;100.00;99360.78;4945519;28;20488;-70
2021/01/30 07:50:53;;;;;;;19.30;10.37;;;;;;;-3.34;100.00;99365.91;4945198;28;20697;-71
2021/01/30 07:53:21;;;;;;;17.03;9.90;;;;;;;-3.30;100.00;99372.75;4943760;28;20472;-70
2021/01/30 07:56:03;;;;;;;15.70;8.97;;;;;;;-3.25;100.00;99373.66;4947610;28;20598;-72
2021/01/30 07:58:45;;;;;;;15.20;8.77;;;;;;;-3.19;100.00;99378.81;4949070;28;20205;-71
2021/01/30 08:01:45;;;;;;;14.60;8.20;;;;;;;-3.16;100.00;99380.53;4942389;28;20238;-71
2021/01/30 08:04:34;;;;;;;20.30;10.17;;;;;;;-3.14;100.00;99378.84;4938753;28;20469;-72
2021/01/30 08:07:11;;;;;;;16.30;9.63;;;;;;;-3.10;100.00;99376.31;4944738;29;20604;-71
2021/01/30 08:09:46;;;;;;;19.37;10.00;;;;;;;-3.04;100.00;99388.31;4944745;28;20286;-70
2021/01/30 08:12:20;;;;;;;14.90;9.33;;;;;;;-3.03;100.00;99392.53;4941840;28;20253;-70
2021/01/30 08:14:54;;;;;;;16.77;11.07;;;;;;;-3.01;100.00;99403.59;4947732;28;20202;-71
2021/01/30 08:17:44;;;;;;;19.33;11.37;;;;;;;-2.95;100.00;99402.84;4946696;28;20354;-70
2021/01/30 08:20:17;;;;;;;16.83;10.30;;;;;;;-2.87;100.00;99402.06;4946227;28;20221;-71
2021/01/30 08:22:51;;;;;;;17.07;9.50;;;;;;;-2.79;100.00;99407.22;4940604;28;20226;-73
2021/01/30 08:25:23;;;;;;;15.50;9.40;;;;;;;-2.75;100.00;99415.75;4945152;28;20203;-70
2021/01/30 08:27:58;;;;;;;14.90;9.20;;;;;;;-2.70;100.00;99414.94;4943586;28;20490;-74
2021/01/30 08:30:25;;;;;;;19.17;10.57;;;;;;;-2.71;100.00;99420.03;4947780;28;20209;-71
2021/01/30 08:32:58;;;;;;;16.00;9.43;;;;;;;-2.65;100.00;99422.66;4937230;28;20235;-71
2021/01/30 08:35:43;;;;;;;16.20;9.80;;;;;;;-2.53;100.00;99432.09;4946555;28;20578;-71
2021/01/30 08:38:30;;;;;;;15.67;9.73;;;;;;;-2.53;100.00;99435.50;4927406;29;20199;-72
2021/01/30 08:40:58;;;;;;;18.93;9.67;;;;;;;-2.52;99.87;99444.00;4943516;28;20556;-73
2021/01/30 08:43:36;;;;;;;19.07;10.53;;;;;;;-2.41;99.78;99441.53;4940230;28;20387;-73
2021/01/30 08:46:24;;;;;;;14.17;8.93;;;;;;;-2.34;99.61;99438.19;4943056;28;20214;-73
2021/01/30 08:49:21;;;;;;;15.03;9.20;;;;;;;-2.25;99.55;99440.81;4939836;29;20663;-73
2021/01/30 08:51:50;;;;;;;15.90;9.37;;;;;;;-2.17;99.07;99449.38;4957416;28;20931;-74
2021/01/30 08:54:30;;;;;;;15.80;9.30;;;;;;;-2.21;98.40;99455.31;4942566;28;20671;-75
2021/01/30 08:56:56;;;;;;;15.73;8.87;;;;;;;-2.11;98.60;99458.75;4947821;28;20221;-73
2021/01/30 08:59:42;;;;;;;14.90;9.40;;;;;;;-2.11;98.15;99454.53;4949290;28;20278;-75
2021/01/30 09:02:30;;;;;;;17.90;9.80;;;;;;;-2.13;98.20;99461.34;4942734;28;20230;-76
2021/01/30 09:05:00;;;;;;;25.83;13.43;;;;;;;-2.02;98.31;99463.06;4933865;28;20206;-73
2021/01/30 09:07:44;;;;;;;23.40;12.10;;;;;;;-2.03;98.03;99472.44;4946734;28;20248;-73
2021/01/30 09:10:17;;;;;;;26.97;12.63;;;;;;;-1.98;97.88;99475.03;4942448;28;20679;-73
2021/01/30 09:12:51;;;;;;;30.43;15.67;;;;;;;-1.86;97.59;99479.38;4947943;28;20285;-73
2021/01/30 09:15:53;;;;;;;12.87;8.90;;;;;;;-1.80;96.96;99485.38;4943616;28;20214;-74
2021/01/30 09:18:27;;;;;;;14.33;7.80;;;;;;;-1.91;97.03;99492.13;4949733;28;20206;-71
2021/01/30 09:20:56;;;;;;;15.77;7.90;;;;;;;-1.80;97.02;99493.03;4949031;28;20198;-74
2021/01/30 09:23:31;;;;;;;11.30;7.20;;;;;;;-1.68;96.64;99497.38;4948142;28;20238;-73
2021/01/30 09:26:03;;;;;;;13.20;8.27;;;;;;;-1.72;96.12;99498.19;4938853;28;20206;-72
2021/01/30 09:28:32;;;;;;;12.07;7.57;;;;;;;-1.56;95.93;99488.91;4944747;28;20573;-75
2021/01/30 09:31:00;;;;;;;11.73;6.07;;;;;;;-1.59;95.38;99487.19;4945961;28;20195;-74
2021/01/30 09:33:28;;;;;;;9.33;6.23;;;;;;;-1.42;95.43;99489.81;4944757;28;20230;-73
2021/01/30 09:36:06;;;;;;;9.10;6.07;;;;;;;-1.29;94.37;99498.41;4949320;28;20257;-73
2021/01/30 09:38:40;;;;;;;11.00;6.67;;;;;;;-1.26;94.09;99497.56;4943715;28;20203;-72
2021/01/30 09:41:14;;;;;;;9.97;6.53;;;;;;;-1.13;93.39;99504.41;4944281;28;20211;-72
2021/01/30 09:43:40;;;;;;;11.07;6.13;;;;;;;-1.16;91.65;99501.88;4947509;28;20206;-72
2021/01/30 09:46:11;;;;;;;10.43;5.60;;;;;;;-1.11;92.22;99492.47;4949848;28;20579;-73
2021/01/30 09:48:38;;;;;;;8.93;5.73;;;;;;;-1.06;92.20;99500.19;4941426;28;20288;-72
2021/01/30 09:51:07;;;;;;;10.33;6.23;;;;;;;-1.12;91.58;99500.19;4948388;28;20203;-73
2021/01/30 09:53:40;;;;;;;16.43;9.30;;;;;;;-1.15;91.53;99503.56;4944730;28;20227;-73
2021/01/30 09:56:10;;;;;;;6.43;4.50;;;;;;;-1.25;91.14;99506.94;4947848;28;20226;-73
2021/01/30 09:58:37;;;;;;;6.47;4.83;;;;;;;-1.19;91.31;99506.97;4948953;28;20199;-73
2021/01/30 10:01:10;;;;;;;7.40;4.73;;;;;;;-0.92;91.80;99515.56;4947268;28;20195;-73
2021/01/30 10:03:39;;;;;;;9.67;5.37;;;;;;;-0.74;91.53;99512.19;4947808;28;20434;-72
2021/01/30 10:06:15;;;;;;;11.37;6.60;;;;;;;-0.79;90.47;99522.44;4946525;28;20234;-72
2021/01/30 10:08:42;;;;;;;8.83;5.03;;;;;;;-0.87;90.63;99530.09;4946703;28;20211;-71
2021/01/30 10:11:12;;;;;;;8.63;5.23;;;;;;;-0.84;91.54;99529.25;4947631;28;20209;-73
2021/01/30 10:13:40;;;;;;;9.80;5.40;;;;;;;-0.96;90.35;99533.47;4949530;28;20568;-72
2021/01/30 10:16:11;;;;;;;6.90;4.60;;;;;;;-1.00;90.85;99531.75;4950499;29;20237;-74
2021/01/30 10:18:41;;;;;;;6.90;4.23;;;;;;;-1.03;90.49;99538.56;4951715;28;20217;-74
2021/01/30 10:21:08;;;;;;;7.43;4.23;;;;;;;-1.19;90.34;99537.66;4948151;28;20235;-72
2021/01/30 10:23:36;;;;;;;8.57;5.20;;;;;;;-1.25;91.27;99543.63;4947437;28;20706;-72
2021/01/30 10:26:15;;;;;;;6.47;4.43;;;;;;;-1.26;91.27;99541.06;4948498;28;20202;-73
2021/01/30 10:28:44;;;;;;;11.47;5.17;;;;;;;-1.18;92.21;99545.34;4949729;28;20302;-73
2021/01/30 10:31:11;;;;;;;9.83;6.17;;;;;;;-1.16;91.96;99542.81;4949998;28;20199;-75
2021/01/30 10:33:44;;;;;;;6.73;5.00;;;;;;;-1.17;92.25;99553.88;4948724;28;20211;-71
2021/01/30 10:36:11;;;;;;;9.47;5.70;;;;;;;-1.38;90.15;99554.63;4946681;28;20223;-73
2021/01/30 10:38:38;;;;;;;7.07;4.47;;;;;;;-1.34;90.10;99561.44;4949482;28;20228;-71
2021/01/30 10:41:07;;;;;;;8.37;4.77;;;;;;;-1.37;89.96;99558.91;4949996;28;20637;-72
2021/01/30 10:43:36;;;;;;;6.53;4.30;;;;;;;-1.25;89.82;99560.66;4942931;28;20290;-74
2021/01/30 10:46:06;;;;;;;5.63;3.73;;;;;;;-1.20;89.48;99564.09;4947723;28;20285;-73
2021/01/30 10:48:34;;;;;;;7.30;4.07;;;;;;;-1.16;89.80;99556.44;4950079;28;20622;-73
2021/01/30 10:51:03;;;;;;;11.50;6.60;;;;;;;-1.25;90.12;99564.06;4943707;28;20289;-73
2021/01/30 10:53:33;;;;;;;16.33;9.93;;;;;;;-1.22;90.33;99570.91;4948005;28;20230;-72
2021/01/30 10:56:00;;;;;;;17.30;11.97;;;;;;;-1.22;90.16;99568.34;4944934;28;20714;-73
2021/01/30 10:58:31;;;;;;;11.43;6.10;;;;;;;-1.25;89.51;99570.88;4935081;28;20667;-74
2021/01/30 11:01:01;;;;;;;9.43;5.23;;;;;;;-1.34;88.65;99575.13;4949860;28;20216;-73
2021/01/30 11:03:40;;;;;;;16.43;9.33;;;;;;;-1.29;88.94;99571.72;4945541;28;20317;-71
2021/01/30 11:06:14;;;;;;;14.00;7.67;;;;;;;-1.12;89.87;99567.53;4948846;28;20214;-73
2021/01/30 11:08:40;;;;;;;9.70;6.27;;;;;;;-1.19;87.91;99571.75;4948431;28;20209;-74
2021/01/30 11:11:11;;;;;;;9.43;5.50;;;;;;;-1.19;88.15;99576.03;4946443;28;20210;-74
2021/01/30 11:13:39;;;;;;;11.53;6.30;;;;;;;-1.17;88.93;99575.19;4947576;28;20233;-73
2021/01/30 11:16:12;;;;;;;9.53;5.50;;;;;;;-1.18;90.00;99564.94;4946073;28;20218;-74
2021/01/30 11:18:41;;;;;;;11.70;6.23;;;;;;;-1.12;89.58;99572.66;4948131;28;20682;-73
2021/01/30 11:21:12;;;;;;;9.33;5.47;;;;;;;-1.06;90.03;99577.78;4949025;28;20215;-70
2021/01/30 11:23:48;;;;;;;9.90;5.90;;;;;;;-0.99;89.61;99576.13;4950524;28;20207;-75
2021/01/30 11:26:34;;;;;;;10.77;5.40;;;;;;;-0.91;89.96;99573.59;4949648;28;20207;-74
2021/01/30 11:29:01;;;;;;;8.83;5.60;;;;;;;-0.89;89.37;99585.53;4948841;28;21171;-72
2021/01/30 11:31:27;;;;;;;11.47;7.00;;;;;;;-0.77;89.66;99579.63;4950750;28;20207;-72
2021/01/30 11:33:55;;;;;;;9.73;6.37;;;;;;;-0.70;89.57;99571.09;4947686;28;20205;-73
2021/01/30 11:36:22;;;;;;;12.80;7.20;;;;;;;-0.51;90.06;99566.00;4945781;28;20710;-73
2021/01/30 11:38:54;;;;;;;10.43;6.13;;;;;;;-0.49;88.91;99570.31;4947825;28;20203;-71
2021/01/30 11:41:20;;;;;;;12.23;7.07;;;;;;;-0.42;87.58;99577.13;4946595;28;20218;-73